Weather reports worldwide

Advertisment
Wick Airport, United Kingdom (2003075): temperature & dewpoint: 18.11.2020 04:00:00 - 24.11.2020 04:00:00 (GMT)Wick Airport, United Kingdom (2003075): wind speed: 18.11.2020 04:00:00 - 24.11.2020 04:00:00 (GMT)Wick Airport, United Kingdom (2003075): wind direction: 18.11.2020 04:00:00 - 24.11.2020 04:00:00 (GMT)Wick Airport, United Kingdom (2003075): visibility: 18.11.2020 04:00:00 - 24.11.2020 04:00:00 (GMT)
Date & Time tt [°C] td [°C] ff [km/h] ff [kn] dd vv [km]
24.11.2020 04:00:00 8,0 4,0 16 9 SW 10
24.11.2020 03:00:00 8,0 6,0 9 5 SSW 10
24.11.2020 02:00:00 8,0 6,0 11 6 SSW 10
24.11.2020 01:00:00 7,0 6,0 16 9 S 10
24.11.2020 00:00:00 8,0 6,0 13 7 SSW 10
23.11.2020 23:00:00 8,0 5,0 21 11 SSW 10
23.11.2020 22:00:00 8,0 6,0 18 10 SSW 10
23.11.2020 21:00:00 8,0 6,0 15 8 SSW 10
23.11.2020 20:00:00 8,0 7,0 16 9 SSW 10
23.11.2020 19:00:00 9,0 7,0 9 5 SW 10
23.11.2020 18:00:00 9,0 6,0 16 9 SSW 10
23.11.2020 17:00:00 9,0 6,0 26 14 S 10
23.11.2020 16:00:00 8,0 5,0 24 13 S 10
23.11.2020 15:00:00 9,0 4,0 29 16 S 10
23.11.2020 14:00:00 9,0 4,0 29 16 S 10
23.11.2020 13:00:00 8,0 3,0 34 18 S 10
23.11.2020 12:00:00 8,0 3,0 34 18 S 10
23.11.2020 11:00:00 8,0 4,0 26 14 SSW 10
23.11.2020 10:00:00 8,0 6,0 26 14 SSW 10
23.11.2020 09:00:00 8,0 6,0 18 10 S 10
23.11.2020 08:00:00 8,0 5,0 16 9 S 10
23.11.2020 07:00:00 7,0 5,0 18 10 S 10
23.11.2020 06:00:00 7,0 5,0 13 7 S 10
23.11.2020 05:00:00 6,0 4,0 15 8 S 10
23.11.2020 04:00:00 5,0 3,0 9 5 S 10
23.11.2020 03:00:00 5,0 3,0 9 5 SSW 10
23.11.2020 02:00:00 4,0 2,0 9 5 SW 10
23.11.2020 01:00:00 4,0 2,0 8 4 SW 10
23.11.2020 00:00:00 4,0 2,0 8 4 SW 10
22.11.2020 23:00:00 3,0 1,0 8 4 SW 10
22.11.2020 22:00:00 5,0 2,0 13 7 WSW 10
22.11.2020 21:00:00 4,0 2,0 11 6 WSW 10
22.11.2020 20:00:00 4,0 2,0 9 5 WSW 10
22.11.2020 19:00:00 5,0 2,0 13 7 SW 10
22.11.2020 18:00:00 5,0 2,0 18 10 WSW 10
22.11.2020 17:00:00 4,0 2,0 21 11 W 10
22.11.2020 16:00:00 6,0 3,0 24 13 WSW 10
22.11.2020 15:00:00 6,0 2,0 22 12 WSW 10
22.11.2020 14:00:00 6,0 3,0 16 9 WSW 10
22.11.2020 13:00:00 7,0 3,0 16 9 WSW 10
22.11.2020 12:00:00 7,0 3,0 15 8 WSW 10
22.11.2020 11:00:00 7,0 3,0 29 16 WSW 10
22.11.2020 10:00:00 6,0 3,0 28 15 WSW 10
22.11.2020 09:00:00 6,0 3,0 28 15 W 10
22.11.2020 08:00:00 6,0 3,0 34 18 W 10
22.11.2020 07:00:00 6,0 3,0 39 21 W 10
22.11.2020 06:00:00 6,0 4,0 34 18 W 10
22.11.2020 05:00:00 6,0 4,0 48 26 W 10
22.11.2020 04:00:00 6,0 4,0 46 25 W 10
22.11.2020 03:00:00 6,0 3,0 44 24 WSW 10
22.11.2020 02:00:00 6,0 2,0 28 15 SW 10
22.11.2020 01:00:00 5,0 1,0 24 13 SW 10
22.11.2020 00:00:00 5,0 2,0 26 14 SW 10
21.11.2020 23:00:00 5,0 2,0 31 17 WSW 10
21.11.2020 22:00:00 5,0 2,0 31 17 SW 10
21.11.2020 21:00:00 5,0 2,0 24 13 SW 10
21.11.2020 20:00:00 5,0 2,0 37 20 SW 10
21.11.2020 19:00:00 5,0 2,0 31 17 SW 10
21.11.2020 18:00:00 5,0 2,0 31 17 SW 10
21.11.2020 17:00:00 5,0 2,0 24 13 SW 10
21.11.2020 16:00:00 6,0 2,0 21 11 SW 10
21.11.2020 15:00:00 7,0 2,0 18 10 SW 10
21.11.2020 14:00:00 7,0 2,0 28 15 SW 10
21.11.2020 13:00:00 8,0 2,0 28 15 SW 10
21.11.2020 12:00:00 7,0 2,0 31 17 WSW 10
21.11.2020 11:00:00 7,0 3,0 37 20 SW 10
21.11.2020 10:00:00 6,0 3,0 28 15 SW 10
21.11.2020 09:00:00 6,0 3,0 31 17 WSW 10
21.11.2020 08:00:00 7,0 2,0 29 16 WSW 10
21.11.2020 07:00:00 7,0 3,0 35 19 WSW 10
21.11.2020 06:00:00 7,0 3,0 18 10 WSW 10
21.11.2020 05:00:00 8,0 4,0 42 23 WSW 10
21.11.2020 04:00:00 7,0 5,0 29 16 SW 10
21.11.2020 03:00:00 8,0 5,0 34 18 WSW 10
21.11.2020 02:00:00 9,0 5,0 37 20 WSW 10
21.11.2020 01:00:00 10,0 4,0 29 16 SW 10
21.11.2020 00:00:00 10,0 5,0 28 15 SW 10
20.11.2020 23:00:00 11,0 6,0 28 15 WSW 10
20.11.2020 22:00:00 11,0 6,0 34 18 SW 10
20.11.2020 21:00:00 12,0 6,0 55 30 WSW 10
20.11.2020 20:00:00 12,0 10,0 28 15 SSW 10
20.11.2020 19:00:00 11,0 9,0 29 16 SSW 10
20.11.2020 18:00:00 - - - - - -
20.11.2020 17:00:00 11,0 9,0 28 15 S 10
20.11.2020 16:00:00 10,0 8,0 26 14 S 10
20.11.2020 15:00:00 9,0 7,0 26 14 SSE 10
20.11.2020 14:00:00 8,0 7,0 28 15 SSE 5
20.11.2020 13:00:00 8,0 6,0 29 16 S 10
20.11.2020 12:00:00 8,0 5,0 29 16 S 10
20.11.2020 11:00:00 7,0 5,0 24 13 SSE 10
20.11.2020 10:00:00 8,0 4,0 24 13 SSE 10
20.11.2020 09:00:00 7,0 3,0 21 11 SSE 10
20.11.2020 08:00:00 6,0 2,0 24 13 SSE 10
20.11.2020 07:00:00 6,0 1,0 28 15 SSE 10
20.11.2020 06:00:00 6,0 1,0 21 11 SSE 10
20.11.2020 05:00:00 5,0 0,0 16 9 SSE 10
20.11.2020 04:00:00 3,0 0,0 8 4 S 10
20.11.2020 03:00:00 2,0 -1,0 5 3 SSW 10
20.11.2020 02:00:00 2,0 -2,0 5 3 SSW 10
20.11.2020 01:00:00 2,0 -2,0 4 2 SW 10
20.11.2020 00:00:00 2,0 -1,0 8 4 WSW 10
19.11.2020 23:00:00 2,0 0,0 11 6 WSW 10
19.11.2020 22:00:00 3,0 0,0 13 7 WSW 10
19.11.2020 21:00:00 3,0 1,0 9 5 WSW 10
19.11.2020 20:00:00 2,0 1,0 9 5 WNW 10
19.11.2020 19:00:00 3,0 1,0 5 3 W 10
19.11.2020 18:00:00 3,0 0,0 5 3 W 10
19.11.2020 17:00:00 3,0 1,0 15 8 WNW 10
19.11.2020 16:00:00 3,0 -2,0 18 10 NW 10
19.11.2020 15:00:00 3,0 0,0 28 15 WNW 10
19.11.2020 14:00:00 4,0 -1,0 35 19 WNW 10
19.11.2020 13:00:00 4,0 0,0 34 18 WNW 10
19.11.2020 12:00:00 3,0 1,0 34 18 WNW 10
19.11.2020 11:00:00 3,0 0,0 37 20 WNW 10
19.11.2020 10:00:00 3,0 -1,0 21 11 WNW 10
19.11.2020 09:00:00 2,0 -1,0 31 17 WNW 10
19.11.2020 08:00:00 2,0 0,0 31 17 NNW 10
19.11.2020 07:00:00 2,0 0,0 24 13 NNW 10
19.11.2020 06:00:00 3,0 -1,0 28 15 NNW 10
19.11.2020 05:00:00 4,0 -1,0 39 21 NNW 10
19.11.2020 04:00:00 3,0 0,0 35 19 NNW 10
19.11.2020 03:00:00 4,0 0,0 37 20 N 10
19.11.2020 02:00:00 4,0 0,0 48 26 NNW 10
19.11.2020 01:00:00 4,0 1,0 50 27 NNW 10
19.11.2020 00:00:00 4,0 2,0 54 29 NNW 7
18.11.2020 23:00:00 5,0 3,0 61 33 NNW 10
18.11.2020 22:00:00 5,0 4,0 63 34 N 8
18.11.2020 21:00:00 6,0 5,0 61 33 N 6
18.11.2020 20:00:00 7,0 5,0 48 26 NNW 10
18.11.2020 19:00:00 7,0 4,0 35 19 WSW 10
18.11.2020 18:00:00 8,0 5,0 29 16 SW 10
18.11.2020 17:00:00 9,0 7,0 24 13 WSW 10
18.11.2020 16:00:00 9,0 7,0 15 8 SW 10
18.11.2020 15:00:00 10,0 8,0 15 8 WSW 10
18.11.2020 14:00:00 10,0 8,0 26 14 W 10
18.11.2020 13:00:00 11,0 9,0 4 2 - 10
18.11.2020 12:00:00 11,0 9,0 9 5 WSW 10
18.11.2020 11:00:00 12,0 11,0 5 3 W 10
18.11.2020 10:00:00 12,0 11,0 13 7 SSW 4,0
18.11.2020 09:00:00 13,0 10,0 22 12 S 10
18.11.2020 08:00:00 13,0 10,0 22 12 S 10
18.11.2020 07:00:00 13,0 10,0 16 9 S 10
18.11.2020 06:00:00 13,0 11,0 24 13 S 10
18.11.2020 05:00:00 13,0 11,0 18 10 S 10
18.11.2020 04:00:00 12,0 11,0 18 10 S 10

tt = temperature
td = dewpoint
ff = wind speed
dd = wind direction
vv = visibility

Next stations